Time;durP1;ratioP1;P1;durP2;ratioP2;P2;SDS_P1;SDS_P2;PMS_P1;PMS_P2;Temp;Humidity;BMP_temperature;BMP_pressure;BME280_temperature;BME280_humidity;BME280_pressure;Samples;Min_cycle;Max_cycle;Signal;HPM_P1;HPM_P2
2023/05/09 00:01:38;;;;;;;16.35;9.95;;;;;;;;;;5008960;28;20126;-80
2023/05/09 00:04:04;;;;;;;14.02;11.35;;;;;;;;;;4969269;28;20042;-80
2023/05/09 00:06:31;;;;;;;16.83;11.02;;;;;;;;;;5012229;28;20029;-79
2023/05/09 00:08:57;;;;;;;16.88;11.30;;;;;;;;;;5030541;28;20029;-78
2023/05/09 00:11:22;;;;;;;10.63;8.93;;;;;;;;;;5003811;28;20138;-79
2023/05/09 00:13:49;;;;;;;13.27;9.93;;;;;;;;;;5029442;28;20045;-81
2023/05/09 00:16:16;;;;;;;9.10;8.23;;;;;;;;;;5010432;28;20045;-79
2023/05/09 00:18:42;;;;;;;13.57;10.65;;;;;;;;;;5013259;28;20041;-80
2023/05/09 00:21:08;;;;;;;16.30;12.65;;;;;;;;;;5028014;28;20500;-79
2023/05/09 00:23:34;;;;;;;12.85;10.95;;;;;;;;;;5025558;28;20041;-79
2023/05/09 00:26:00;;;;;;;13.95;11.60;;;;;;;;;;4993480;28;20087;-79
2023/05/09 00:28:26;;;;;;;15.20;11.65;;;;;;;;;;5040972;28;20037;-78
2023/05/09 00:30:52;;;;;;;14.13;10.48;;;;;;;;;;4997239;28;20045;-79
2023/05/09 00:33:18;;;;;;;15.48;10.88;;;;;;;;;;4991388;28;20048;-79
2023/05/09 00:35:44;;;;;;;10.63;9.48;;;;;;;;;;5012012;28;20056;-78
2023/05/09 00:38:10;;;;;;;13.63;10.48;;;;;;;;;;5011599;28;20529;-80
2023/05/09 00:40:35;;;;;;;10.77;9.15;;;;;;;;;;5022677;28;20029;-80
2023/05/09 00:43:01;;;;;;;11.88;8.52;;;;;;;;;;4993320;28;20124;-79
2023/05/09 00:45:26;;;;;;;14.13;10.32;;;;;;;;;;5030696;28;20041;-79
2023/05/09 00:47:52;;;;;;;10.32;9.30;;;;;;;;;;5031720;28;20029;-79
2023/05/09 00:50:18;;;;;;;18.20;10.90;;;;;;;;;;5022181;28;20053;-80
2023/05/09 00:52:44;;;;;;;17.42;11.23;;;;;;;;;;5006820;28;20121;-80
2023/05/09 00:55:10;;;;;;;13.55;10.20;;;;;;;;;;5001459;28;20029;-80
2023/05/09 00:57:36;;;;;;;10.85;9.75;;;;;;;;;;5013116;28;20037;-81
2023/05/09 01:00:03;;;;;;;10.35;9.27;;;;;;;;;;5030991;28;20421;-78
2023/05/09 01:02:29;;;;;;;10.35;9.43;;;;;;;;;;5028413;28;20396;-79
2023/05/09 01:04:55;;;;;;;13.75;11.13;;;;;;;;;;5010930;28;20037;-80
2023/05/09 01:07:37;;;;;;;14.02;10.20;;;;;;;;;;5018814;28;20041;-80
2023/05/09 01:10:20;;;;;;;17.42;12.38;;;;;;;;;;5019996;28;20034;-79
2023/05/09 01:12:58;;;;;;;13.63;10.10;;;;;;;;;;5021016;28;20042;-79
2023/05/09 01:15:49;;;;;;;15.32;11.13;;;;;;;;;;5012926;28;20029;-79
2023/05/09 01:18:30;;;;;;;16.17;11.65;;;;;;;;;;5008997;28;20067;-81
2023/05/09 01:21:02;;;;;;;20.65;13.55;;;;;;;;;;5012002;28;20076;-80
2023/05/09 01:23:29;;;;;;;8.20;7.30;;;;;;;;;;5015504;28;20045;-80
2023/05/09 01:26:22;;;;;;;18.48;13.05;;;;;;;;;;5024258;28;20041;-80
2023/05/09 01:28:48;;;;;;;10.10;8.55;;;;;;;;;;5014595;28;20056;-81
2023/05/09 01:31:15;;;;;;;8.13;7.35;;;;;;;;;;5021089;28;20117;-78
2023/05/09 01:33:43;;;;;;;16.02;12.52;;;;;;;;;;5014057;28;20219;-79
2023/05/09 01:36:16;;;;;;;10.88;9.25;;;;;;;;;;4993484;28;20453;-79
2023/05/09 01:38:43;;;;;;;14.75;9.30;;;;;;;;;;5012729;28;20527;-80
2023/05/09 01:41:11;;;;;;;16.13;11.68;;;;;;;;;;5035681;28;20038;-80
2023/05/09 01:43:37;;;;;;;15.23;10.88;;;;;;;;;;5038488;28;20041;-78
2023/05/09 01:46:04;;;;;;;15.00;11.45;;;;;;;;;;5043583;28;20119;-79
2023/05/09 01:48:30;;;;;;;19.52;12.63;;;;;;;;;;5014461;28;20045;-80
2023/05/09 01:50:58;;;;;;;17.42;11.75;;;;;;;;;;4997018;28;20095;-80
2023/05/09 01:53:26;;;;;;;14.63;12.00;;;;;;;;;;5012789;28;20068;-80
2023/05/09 01:55:52;;;;;;;16.55;11.30;;;;;;;;;;5010671;28;20737;-80
2023/05/09 01:58:19;;;;;;;25.33;13.85;;;;;;;;;;4972525;28;20105;-80
2023/05/09 02:00:47;;;;;;;17.30;12.80;;;;;;;;;;4995985;28;20144;-79
2023/05/09 02:03:13;;;;;;;16.90;12.65;;;;;;;;;;5025218;28;20031;-80
2023/05/09 02:05:40;;;;;;;16.33;12.30;;;;;;;;;;5017308;28;20076;-79
2023/05/09 02:08:07;;;;;;;16.40;11.88;;;;;;;;;;4995818;28;20076;-81
2023/05/09 02:10:34;;;;;;;17.35;11.15;;;;;;;;;;5005775;28;20048;-81
2023/05/09 02:13:00;;;;;;;16.67;11.57;;;;;;;;;;4995793;28;20037;-81
2023/05/09 02:15:27;;;;;;;19.55;12.45;;;;;;;;;;4994753;28;20060;-79
2023/05/09 02:17:53;;;;;;;20.75;13.57;;;;;;;;;;4981614;28;20430;-81
2023/05/09 02:20:19;;;;;;;19.48;13.98;;;;;;;;;;5012943;28;20537;-80
2023/05/09 02:22:45;;;;;;;19.15;12.30;;;;;;;;;;5029682;28;20041;-80
2023/05/09 02:25:14;;;;;;;23.60;12.68;;;;;;;;;;5002040;28;20033;-80
2023/05/09 02:27:39;;;;;;;18.98;12.63;;;;;;;;;;5028565;28;20061;-81
2023/05/09 02:30:10;;;;;;;17.40;11.57;;;;;;;;;;5030188;28;20055;-81
2023/05/09 02:32:38;;;;;;;15.25;11.55;;;;;;;;;;5009638;28;20112;-80
2023/05/09 02:35:06;;;;;;;21.23;14.82;;;;;;;;;;5006070;28;20088;-80
2023/05/09 02:37:32;;;;;;;23.88;14.35;;;;;;;;;;5019627;28;20038;-80
2023/05/09 02:39:59;;;;;;;20.17;13.95;;;;;;;;;;5024236;28;20021;-80
2023/05/09 02:42:28;;;;;;;22.17;14.93;;;;;;;;;;5040358;28;20060;-81
2023/05/09 02:44:54;;;;;;;23.08;15.10;;;;;;;;;;5028611;28;20038;-80
2023/05/09 02:47:21;;;;;;;19.48;14.00;;;;;;;;;;5010668;28;20120;-81
2023/05/09 02:49:47;;;;;;;23.95;15.65;;;;;;;;;;5000053;28;20484;-79
2023/05/09 02:52:13;;;;;;;18.25;12.20;;;;;;;;;;4996319;28;20481;-78
2023/05/09 02:54:39;;;;;;;22.27;13.75;;;;;;;;;;5011828;28;20038;-79
2023/05/09 02:57:05;;;;;;;21.73;14.43;;;;;;;;;;5006438;28;20186;-80
2023/05/09 02:59:31;;;;;;;17.25;12.90;;;;;;;;;;5006598;28;20033;-80
2023/05/09 03:02:00;;;;;;;18.70;13.35;;;;;;;;;;5008598;28;20580;-79
2023/05/09 03:04:26;;;;;;;20.35;13.60;;;;;;;;;;5005541;28;20056;-79
2023/05/09 03:06:52;;;;;;;13.88;10.93;;;;;;;;;;5006447;28;20033;-80
2023/05/09 03:09:17;;;;;;;18.63;10.05;;;;;;;;;;5022141;28;20405;-79
2023/05/09 03:11:43;;;;;;;20.85;12.43;;;;;;;;;;4996628;28;20033;-79
2023/05/09 03:14:10;;;;;;;10.70;9.77;;;;;;;;;;5013705;28;20042;-80
2023/05/09 03:16:36;;;;;;;13.27;9.07;;;;;;;;;;5029531;28;20029;-79
2023/05/09 03:19:02;;;;;;;21.83;12.68;;;;;;;;;;5000270;28;20037;-80
2023/05/09 03:21:29;;;;;;;14.77;11.85;;;;;;;;;;4980199;28;20108;-79
2023/05/09 03:23:55;;;;;;;22.02;15.13;;;;;;;;;;5026834;28;20033;-79
2023/05/09 03:26:20;;;;;;;16.15;12.23;;;;;;;;;;5014304;28;20029;-79
2023/05/09 03:28:47;;;;;;;23.35;14.00;;;;;;;;;;5009506;28;20033;-80
2023/05/09 03:31:14;;;;;;;15.32;11.25;;;;;;;;;;5008351;28;20037;-81
2023/05/09 03:33:40;;;;;;;20.58;13.57;;;;;;;;;;5011043;28;20052;-81
2023/05/09 03:36:07;;;;;;;22.08;14.50;;;;;;;;;;5007346;28;20042;-80
2023/05/09 03:38:33;;;;;;;23.42;14.82;;;;;;;;;;5010972;28;20060;-80
2023/05/09 03:40:59;;;;;;;20.45;14.07;;;;;;;;;;4993153;28;20041;-80
2023/05/09 03:43:25;;;;;;;15.57;12.30;;;;;;;;;;4994489;28;20041;-80
2023/05/09 03:45:51;;;;;;;17.88;13.20;;;;;;;;;;5022092;28;20037;-79
2023/05/09 03:48:16;;;;;;;17.08;11.52;;;;;;;;;;5012692;28;20038;-80
2023/05/09 03:50:47;;;;;;;15.68;10.88;;;;;;;;;;5011081;28;20456;-79
2023/05/09 03:53:14;;;;;;;14.35;11.48;;;;;;;;;;5013301;28;20041;-80
2023/05/09 03:55:41;;;;;;;20.08;13.20;;;;;;;;;;5011593;28;20040;-78
2023/05/09 03:58:08;;;;;;;22.20;14.48;;;;;;;;;;5012487;28;20033;-79
2023/05/09 04:00:36;;;;;;;18.85;13.30;;;;;;;;;;4998359;28;20071;-81
2023/05/09 04:03:08;;;;;;;17.58;12.88;;;;;;;;;;5044992;28;20045;-79
2023/05/09 04:05:39;;;;;;;23.80;15.23;;;;;;;;;;5012819;28;20505;-79
2023/05/09 04:08:09;;;;;;;18.90;14.82;;;;;;;;;;5014692;28;20049;-80
2023/05/09 04:10:34;;;;;;;22.20;15.40;;;;;;;;;;4988155;28;20034;-82
2023/05/09 04:13:02;;;;;;;24.33;16.23;;;;;;;;;;5008154;28;20091;-78
2023/05/09 04:15:28;;;;;;;27.98;15.98;;;;;;;;;;5011970;28;20038;-78
2023/05/09 04:17:55;;;;;;;24.88;14.73;;;;;;;;;;5011861;28;20578;-80
2023/05/09 04:20:21;;;;;;;20.60;13.88;;;;;;;;;;5005133;28;20048;-81
2023/05/09 04:22:47;;;;;;;26.00;16.00;;;;;;;;;;4992687;28;20033;-79
2023/05/09 04:25:14;;;;;;;24.52;15.23;;;;;;;;;;4996717;28;20124;-80
2023/05/09 04:27:40;;;;;;;19.20;14.80;;;;;;;;;;5013183;28;20065;-79
2023/05/09 04:30:07;;;;;;;23.15;15.32;;;;;;;;;;5025268;28;20436;-82
2023/05/09 04:32:34;;;;;;;14.20;11.88;;;;;;;;;;5036600;28;20053;-77
2023/05/09 04:35:00;;;;;;;19.48;13.75;;;;;;;;;;5015310;28;20033;-78
2023/05/09 04:37:31;;;;;;;13.40;10.68;;;;;;;;;;5013173;28;20044;-80
2023/05/09 04:39:57;;;;;;;13.00;10.65;;;;;;;;;;5007529;28;20397;-78
2023/05/09 04:42:32;;;;;;;20.60;14.02;;;;;;;;;;5014035;28;20045;-80
2023/05/09 04:44:58;;;;;;;17.88;13.07;;;;;;;;;;4992854;28;20053;-78
2023/05/09 04:47:24;;;;;;;15.98;12.27;;;;;;;;;;5010686;28;20076;-79
2023/05/09 04:49:50;;;;;;;15.43;13.13;;;;;;;;;;5011893;28;20057;-80
2023/05/09 04:52:16;;;;;;;14.02;11.77;;;;;;;;;;5025934;28;20070;-78
2023/05/09 04:54:42;;;;;;;14.00;11.82;;;;;;;;;;5013094;28;20052;-79
2023/05/09 04:57:08;;;;;;;16.65;12.05;;;;;;;;;;5011458;28;20041;-79
2023/05/09 04:59:35;;;;;;;13.95;11.13;;;;;;;;;;5034217;28;20067;-76
2023/05/09 05:02:01;;;;;;;16.00;12.77;;;;;;;;;;5012335;28;20065;-80
2023/05/09 05:04:27;;;;;;;20.48;12.98;;;;;;;;;;5030358;28;20033;-78
2023/05/09 05:06:53;;;;;;;17.80;12.77;;;;;;;;;;5016940;28;20027;-77
2023/05/09 05:09:19;;;;;;;16.05;12.82;;;;;;;;;;5027215;28;20038;-78
2023/05/09 05:11:44;;;;;;;18.88;12.98;;;;;;;;;;5011330;28;20034;-77
2023/05/09 05:14:10;;;;;;;15.98;11.73;;;;;;;;;;5018624;28;20041;-78
2023/05/09 05:16:36;;;;;;;16.35;12.25;;;;;;;;;;5029924;28;20034;-78
2023/05/09 05:19:02;;;;;;;16.70;13.02;;;;;;;;;;5010549;28;20037;-78
2023/05/09 05:21:29;;;;;;;17.15;13.05;;;;;;;;;;5010319;28;20049;-79
2023/05/09 05:23:55;;;;;;;13.02;10.55;;;;;;;;;;5011734;28;20468;-80
2023/05/09 05:26:21;;;;;;;12.73;9.95;;;;;;;;;;5013943;28;20099;-78
2023/05/09 05:28:47;;;;;;;14.57;12.43;;;;;;;;;;5007278;28;20075;-77
2023/05/09 05:31:13;;;;;;;16.52;12.70;;;;;;;;;;5012965;28;20419;-79
2023/05/09 05:33:38;;;;;;;11.73;9.75;;;;;;;;;;5016608;28;20065;-80
2023/05/09 05:36:05;;;;;;;13.93;11.02;;;;;;;;;;5031316;28;20404;-81
2023/05/09 05:38:30;;;;;;;13.18;10.43;;;;;;;;;;5033464;28;20041;-79
2023/05/09 05:40:57;;;;;;;20.70;13.57;;;;;;;;;;4995297;28;20029;-78
2023/05/09 05:43:24;;;;;;;18.90;11.20;;;;;;;;;;5010251;28;20038;-81
2023/05/09 05:45:50;;;;;;;22.73;12.95;;;;;;;;;;5012154;28;20403;-79
2023/05/09 05:48:19;;;;;;;11.73;9.35;;;;;;;;;;5001375;28;20068;-78
2023/05/09 05:50:46;;;;;;;13.75;9.80;;;;;;;;;;5011404;28;20033;-78
2023/05/09 05:53:14;;;;;;;15.30;12.05;;;;;;;;;;5040130;28;20025;-80
2023/05/09 05:55:40;;;;;;;16.92;12.98;;;;;;;;;;5010006;28;20029;-79
2023/05/09 05:58:05;;;;;;;19.27;12.75;;;;;;;;;;5029168;28;20087;-80
2023/05/09 06:00:31;;;;;;;25.27;14.27;;;;;;;;;;5011365;28;20052;-79
2023/05/09 06:03:02;;;;;;;18.85;13.23;;;;;;;;;;4996169;28;20051;-79
2023/05/09 06:05:43;;;;;;;15.98;12.23;;;;;;;;;;5012548;28;20301;-80
2023/05/09 06:08:09;;;;;;;14.43;11.38;;;;;;;;;;5022594;28;20093;-79
2023/05/09 06:10:35;;;;;;;14.95;11.43;;;;;;;;;;4999738;28;20091;-79
2023/05/09 06:13:01;;;;;;;15.40;11.25;;;;;;;;;;5033170;28;20045;-81
2023/05/09 06:15:26;;;;;;;18.05;13.13;;;;;;;;;;5011893;28;20068;-78
2023/05/09 06:17:53;;;;;;;18.27;13.38;;;;;;;;;;5002208;28;20125;-84
2023/05/09 06:20:20;;;;;;;21.05;13.80;;;;;;;;;;5010313;28;20489;-81
2023/05/09 06:22:46;;;;;;;13.85;11.80;;;;;;;;;;5012120;28;20051;-78
2023/05/09 06:25:11;;;;;;;19.98;13.57;;;;;;;;;;5026341;28;20037;-82
2023/05/09 06:27:37;;;;;;;17.13;12.13;;;;;;;;;;4999845;28;20037;-79
2023/05/09 06:30:04;;;;;;;16.30;12.93;;;;;;;;;;5024821;28;20042;-78
2023/05/09 06:32:29;;;;;;;19.25;14.05;;;;;;;;;;5011460;28;20409;-78
2023/05/09 06:34:55;;;;;;;17.92;12.98;;;;;;;;;;5028018;28;20105;-79
2023/05/09 06:37:20;;;;;;;16.38;12.13;;;;;;;;;;5011565;28;20051;-84
2023/05/09 06:39:46;;;;;;;16.65;12.90;;;;;;;;;;5029523;28;20033;-81
2023/05/09 06:42:12;;;;;;;17.13;12.73;;;;;;;;;;5029145;28;20059;-78
2023/05/09 06:44:38;;;;;;;17.83;12.63;;;;;;;;;;5008035;28;20040;-79
2023/05/09 06:47:04;;;;;;;18.42;12.50;;;;;;;;;;5023838;28;20030;-77
2023/05/09 06:49:29;;;;;;;14.25;11.23;;;;;;;;;;5026465;28;20068;-78
2023/05/09 06:51:55;;;;;;;14.32;11.60;;;;;;;;;;5022259;28;20025;-77
2023/05/09 06:54:20;;;;;;;13.40;10.48;;;;;;;;;;5008701;28;20033;-77
2023/05/09 06:56:46;;;;;;;13.63;11.60;;;;;;;;;;5027396;28;20034;-75
2023/05/09 06:59:12;;;;;;;17.67;12.00;;;;;;;;;;5009013;28;20045;-75
2023/05/09 07:01:41;;;;;;;15.32;12.35;;;;;;;;;;5020265;28;20109;-75
2023/05/09 07:04:07;;;;;;;13.82;11.20;;;;;;;;;;5024723;28;20082;-75
2023/05/09 07:06:32;;;;;;;16.88;12.77;;;;;;;;;;5026703;28;20473;-76
2023/05/09 07:08:58;;;;;;;14.95;12.38;;;;;;;;;;5009745;28;20036;-76
2023/05/09 07:11:23;;;;;;;14.98;12.32;;;;;;;;;;5024581;28;20041;-77
2023/05/09 07:13:49;;;;;;;14.25;11.98;;;;;;;;;;5009350;28;20030;-76
2023/05/09 07:16:16;;;;;;;16.17;11.25;;;;;;;;;;5023641;28;20033;-77
2023/05/09 07:18:42;;;;;;;16.27;12.20;;;;;;;;;;5027646;28;20037;-76
2023/05/09 07:21:07;;;;;;;15.82;12.15;;;;;;;;;;5010392;28;20037;-76
2023/05/09 07:23:33;;;;;;;16.08;12.32;;;;;;;;;;4995334;28;20048;-76
2023/05/09 07:26:00;;;;;;;15.30;11.90;;;;;;;;;;5025494;28;20037;-76
2023/05/09 07:28:26;;;;;;;13.10;10.52;;;;;;;;;;5027382;28;20087;-76
2023/05/09 07:30:53;;;;;;;16.30;11.73;;;;;;;;;;5028266;28;20100;-76
2023/05/09 07:33:19;;;;;;;16.98;12.25;;;;;;;;;;5026431;28;20053;-76
2023/05/09 07:35:44;;;;;;;14.10;11.77;;;;;;;;;;5011764;28;20030;-77
2023/05/09 07:38:10;;;;;;;15.55;12.43;;;;;;;;;;5027245;28;20118;-76
2023/05/09 07:40:37;;;;;;;15.35;12.02;;;;;;;;;;5027384;28;20033;-76
2023/05/09 07:43:03;;;;;;;16.58;12.52;;;;;;;;;;5024709;28;20037;-77
2023/05/09 07:45:29;;;;;;;12.45;10.75;;;;;;;;;;5026026;28;20033;-76
2023/05/09 07:47:54;;;;;;;12.45;10.65;;;;;;;;;;5008923;28;20087;-77
2023/05/09 07:50:22;;;;;;;13.90;10.18;;;;;;;;;;5026401;28;20116;-77
2023/05/09 07:52:48;;;;;;;14.20;10.63;;;;;;;;;;5025401;28;20552;-77
2023/05/09 07:55:13;;;;;;;12.15;9.85;;;;;;;;;;5008366;28;20478;-78
2023/05/09 07:57:39;;;;;;;12.13;10.82;;;;;;;;;;5027428;28;20137;-78
2023/05/09 08:00:06;;;;;;;10.80;9.68;;;;;;;;;;4991695;28;20041;-76
2023/05/09 08:02:38;;;;;;;13.60;10.68;;;;;;;;;;5022249;28;20044;-78
2023/05/09 08:05:04;;;;;;;13.00;10.43;;;;;;;;;;5027146;28;20025;-76
2023/05/09 08:07:30;;;;;;;12.30;9.85;;;;;;;;;;5008440;28;20030;-77
2023/05/09 08:09:55;;;;;;;10.95;9.82;;;;;;;;;;5026174;28;20051;-76
2023/05/09 08:12:21;;;;;;;11.88;10.27;;;;;;;;;;5022987;28;20087;-77
2023/05/09 08:14:47;;;;;;;10.88;9.73;;;;;;;;;;5025867;28;20496;-77
2023/05/09 08:17:13;;;;;;;12.77;9.60;;;;;;;;;;5025754;28;20045;-76
2023/05/09 08:19:38;;;;;;;12.18;10.88;;;;;;;;;;5025141;28;20029;-76
2023/05/09 08:22:04;;;;;;;15.30;12.20;;;;;;;;;;5029717;28;20091;-76
2023/05/09 08:24:31;;;;;;;12.65;10.93;;;;;;;;;;5028994;28;20064;-77
2023/05/09 08:26:57;;;;;;;12.68;10.35;;;;;;;;;;5024301;28;20085;-75
2023/05/09 08:29:22;;;;;;;12.60;10.35;;;;;;;;;;5025491;28;20065;-76
2023/05/09 08:31:48;;;;;;;12.32;10.40;;;;;;;;;;5028642;28;20076;-76
2023/05/09 08:34:13;;;;;;;10.35;9.10;;;;;;;;;;5013611;28;20508;-76
2023/05/09 08:36:39;;;;;;;14.68;11.15;;;;;;;;;;5009425;28;20048;-76
2023/05/09 08:39:05;;;;;;;12.82;10.32;;;;;;;;;;5029309;28;20029;-76
2023/05/09 08:41:34;;;;;;;12.98;10.73;;;;;;;;;;5029424;28;20112;-76
2023/05/09 08:44:00;;;;;;;16.67;11.20;;;;;;;;;;5011565;28;20056;-78
2023/05/09 08:46:38;;;;;;;15.35;11.35;;;;;;;;;;5011143;28;20075;-77
2023/05/09 08:49:06;;;;;;;11.93;10.40;;;;;;;;;;5024607;28;20041;-76
2023/05/09 08:51:31;;;;;;;11.27;9.82;;;;;;;;;;5029293;28;20034;-76
2023/05/09 08:53:58;;;;;;;13.93;11.25;;;;;;;;;;5027900;28;20106;-77
2023/05/09 08:56:23;;;;;;;10.60;9.18;;;;;;;;;;5028650;28;20500;-78
2023/05/09 08:58:50;;;;;;;13.95;10.38;;;;;;;;;;5011140;28;20037;-77
2023/05/09 09:01:16;;;;;;;13.60;10.18;;;;;;;;;;5011517;28;20056;-77
2023/05/09 09:03:46;;;;;;;13.15;10.30;;;;;;;;;;5025169;28;20034;-78
2023/05/09 09:06:12;;;;;;;13.00;10.13;;;;;;;;;;5029596;28;20108;-76
2023/05/09 09:08:39;;;;;;;13.77;10.20;;;;;;;;;;5029289;28;20125;-76
2023/05/09 09:11:04;;;;;;;13.10;10.13;;;;;;;;;;5030848;28;20136;-74
2023/05/09 09:13:31;;;;;;;13.13;10.57;;;;;;;;;;5029659;28;20057;-80
2023/05/09 09:15:58;;;;;;;12.00;10.55;;;;;;;;;;5013349;28;20091;-74
2023/05/09 09:18:28;;;;;;;12.43;10.73;;;;;;;;;;5030836;28;20541;-76
2023/05/09 09:21:02;;;;;;;10.93;9.50;;;;;;;;;;5031104;28;20505;-77
2023/05/09 09:23:29;;;;;;;13.50;10.15;;;;;;;;;;4996712;28;20041;-77
2023/05/09 09:25:59;;;;;;;13.38;10.35;;;;;;;;;;4996742;28;20873;-78
2023/05/09 09:28:25;;;;;;;14.18;10.88;;;;;;;;;;5029406;28;20508;-76
2023/05/09 09:30:51;;;;;;;11.95;10.10;;;;;;;;;;5015314;28;20040;-78
2023/05/09 09:33:23;;;;;;;12.07;9.23;;;;;;;;;;5033688;28;20048;-77
2023/05/09 09:35:51;;;;;;;12.25;10.07;;;;;;;;;;5026009;28;20130;-76
2023/05/09 09:38:20;;;;;;;12.13;8.98;;;;;;;;;;5021697;28;20124;-75
2023/05/09 09:40:56;;;;;;;10.85;8.93;;;;;;;;;;5020529;28;20060;-79
2023/05/09 09:43:29;;;;;;;11.05;9.85;;;;;;;;;;5025205;28;20183;-76
2023/05/09 09:45:56;;;;;;;11.25;10.05;;;;;;;;;;5022243;28;20508;-80
2023/05/09 09:48:26;;;;;;;12.98;10.13;;;;;;;;;;5029526;28;20033;-76
2023/05/09 09:50:55;;;;;;;11.82;9.45;;;;;;;;;;5027298;28;20033;-76
2023/05/09 09:53:22;;;;;;;12.05;9.57;;;;;;;;;;5020669;28;20470;-76
2023/05/09 09:55:52;;;;;;;10.88;9.77;;;;;;;;;;5021053;28;20041;-76
2023/05/09 09:58:20;;;;;;;10.95;9.27;;;;;;;;;;5026912;28;20080;-77
2023/05/09 10:00:49;;;;;;;11.18;9.88;;;;;;;;;;5028748;28;20219;-75
2023/05/09 10:03:17;;;;;;;11.90;9.13;;;;;;;;;;5028131;28;20064;-75
2023/05/09 10:05:43;;;;;;;10.02;8.98;;;;;;;;;;5020417;28;20038;-80
2023/05/09 10:08:09;;;;;;;11.45;8.52;;;;;;;;;;5022270;28;20112;-79
2023/05/09 10:10:36;;;;;;;9.77;8.77;;;;;;;;;;5008589;28;20037;-75
2023/05/09 10:13:06;;;;;;;10.70;9.13;;;;;;;;;;5027019;28;20033;-77
2023/05/09 10:15:33;;;;;;;10.18;8.88;;;;;;;;;;5026326;28;20043;-79
2023/05/09 10:18:00;;;;;;;11.82;8.10;;;;;;;;;;5023997;28;20069;-75
2023/05/09 10:20:27;;;;;;;10.32;8.63;;;;;;;;;;5025974;28;20052;-80
2023/05/09 10:22:56;;;;;;;10.18;8.68;;;;;;;;;;5008127;28;20044;-74
2023/05/09 10:25:32;;;;;;;13.27;8.38;;;;;;;;;;5025085;28;20040;-75
2023/05/09 10:28:00;;;;;;;11.02;8.63;;;;;;;;;;5020014;28;20030;-80
2023/05/09 10:30:38;;;;;;;10.73;8.17;;;;;;;;;;5008200;28;20610;-78
2023/05/09 10:33:09;;;;;;;11.00;9.85;;;;;;;;;;5021357;28;20044;-77
2023/05/09 10:35:45;;;;;;;13.48;10.00;;;;;;;;;;5022013;28;20064;-76
2023/05/09 10:38:12;;;;;;;11.60;9.75;;;;;;;;;;5024385;28;20038;-76
2023/05/09 10:40:40;;;;;;;11.48;10.27;;;;;;;;;;5027514;28;20038;-75
2023/05/09 10:43:08;;;;;;;10.60;9.13;;;;;;;;;;5027593;28;20042;-76
2023/05/09 10:45:34;;;;;;;10.68;9.57;;;;;;;;;;5029594;28;20064;-74
2023/05/09 10:48:02;;;;;;;10.77;9.75;;;;;;;;;;5029652;28;20033;-76
2023/05/09 10:50:29;;;;;;;11.88;10.00;;;;;;;;;;5011283;28;20059;-74
2023/05/09 10:53:07;;;;;;;10.65;9.55;;;;;;;;;;5003726;28;20037;-75
2023/05/09 10:55:37;;;;;;;8.82;8.02;;;;;;;;;;5010155;28;20044;-76
2023/05/09 10:58:17;;;;;;;9.50;8.57;;;;;;;;;;5026322;28;20560;-76
2023/05/09 11:00:43;;;;;;;10.80;8.55;;;;;;;;;;5024297;28;20434;-74
2023/05/09 11:03:08;;;;;;;12.57;8.48;;;;;;;;;;5028442;28;20517;-76
2023/05/09 11:05:40;;;;;;;9.38;8.15;;;;;;;;;;5010285;28;20468;-76
2023/05/09 11:08:25;;;;;;;12.90;8.75;;;;;;;;;;5028578;28;20045;-76
2023/05/09 11:10:53;;;;;;;10.82;9.50;;;;;;;;;;5009010;28;20030;-75
2023/05/09 11:13:44;;;;;;;8.73;7.80;;;;;;;;;;5028323;28;20514;-76
2023/05/09 11:16:10;;;;;;;8.48;7.45;;;;;;;;;;5024625;28;20576;-76
2023/05/09 11:18:50;;;;;;;7.47;6.78;;;;;;;;;;5009062;28;20076;-75
2023/05/09 11:21:19;;;;;;;7.60;6.88;;;;;;;;;;5028003;28;20116;-76
2023/05/09 11:23:45;;;;;;;7.55;6.85;;;;;;;;;;5026484;28;20098;-76
2023/05/09 11:26:11;;;;;;;6.75;6.05;;;;;;;;;;5025410;28;20439;-76
2023/05/09 11:28:37;;;;;;;5.95;5.55;;;;;;;;;;5027325;28;20068;-76
2023/05/09 11:31:11;;;;;;;8.77;7.30;;;;;;;;;;5010599;28;20041;-75
2023/05/09 11:33:38;;;;;;;8.05;7.25;;;;;;;;;;5010246;28;20048;-76
2023/05/09 11:36:26;;;;;;;9.63;7.00;;;;;;;;;;4990925;28;20036;-76
2023/05/09 11:39:09;;;;;;;9.07;7.60;;;;;;;;;;5029730;28;20045;-74
2023/05/09 11:41:40;;;;;;;7.13;6.50;;;;;;;;;;5026655;28;20065;-75
2023/05/09 11:44:19;;;;;;;6.18;5.65;;;;;;;;;;5003720;28;20030;-75
2023/05/09 11:46:47;;;;;;;6.82;6.13;;;;;;;;;;5027165;28;20036;-76
2023/05/09 11:49:13;;;;;;;7.93;7.10;;;;;;;;;;5028940;28;20233;-75
2023/05/09 11:51:40;;;;;;;7.50;6.80;;;;;;;;;;5021221;28;20068;-75
2023/05/09 11:54:06;;;;;;;7.35;6.75;;;;;;;;;;5033087;28;20053;-74
2023/05/09 11:56:37;;;;;;;7.82;7.00;;;;;;;;;;5022154;28;20033;-74
2023/05/09 11:59:03;;;;;;;7.32;6.72;;;;;;;;;;5008431;28;20035;-75
2023/05/09 12:01:29;;;;;;;6.93;6.32;;;;;;;;;;5024196;28;20801;-74
2023/05/09 12:03:56;;;;;;;6.40;5.93;;;;;;;;;;5001877;28;20048;-75
2023/05/09 12:06:22;;;;;;;5.97;5.57;;;;;;;;;;5023973;28;20034;-75
2023/05/09 12:08:47;;;;;;;6.43;5.82;;;;;;;;;;5009265;28;20037;-76
2023/05/09 12:11:13;;;;;;;6.82;6.32;;;;;;;;;;5025197;28;20684;-75
2023/05/09 12:13:47;;;;;;;6.25;5.70;;;;;;;;;;5029617;28;20404;-75
2023/05/09 12:16:13;;;;;;;6.72;6.22;;;;;;;;;;5028169;28;20489;-74
2023/05/09 12:18:46;;;;;;;8.27;6.30;;;;;;;;;;5026882;28;20034;-75
2023/05/09 12:21:12;;;;;;;6.60;6.10;;;;;;;;;;5029705;28;20788;-73
2023/05/09 12:23:37;;;;;;;6.80;6.30;;;;;;;;;;5029506;28;20080;-74
2023/05/09 12:26:03;;;;;;;6.18;5.68;;;;;;;;;;5027388;28;20029;-74
2023/05/09 12:28:29;;;;;;;6.45;5.95;;;;;;;;;;5008132;28;21270;-75
2023/05/09 12:30:55;;;;;;;6.43;5.93;;;;;;;;;;5028586;28;20049;-75
2023/05/09 12:33:21;;;;;;;6.60;6.00;;;;;;;;;;5025027;28;20180;-75
2023/05/09 12:35:48;;;;;;;6.75;6.25;;;;;;;;;;5010716;28;20369;-76
2023/05/09 12:38:21;;;;;;;6.60;6.10;;;;;;;;;;5009789;28;20034;-75
2023/05/09 12:40:47;;;;;;;6.68;6.03;;;;;;;;;;5027929;28;20037;-76
2023/05/09 12:43:13;;;;;;;5.93;5.53;;;;;;;;;;5027835;28;20045;-77
2023/05/09 12:45:40;;;;;;;6.20;5.80;;;;;;;;;;5021054;28;20033;-75
2023/05/09 12:48:08;;;;;;;6.40;5.90;;;;;;;;;;5011027;28;20373;-75
2023/05/09 12:50:34;;;;;;;6.85;6.15;;;;;;;;;;5027315;28;20041;-77
2023/05/09 12:53:01;;;;;;;6.93;6.32;;;;;;;;;;5028260;28;20041;-76
2023/05/09 12:55:27;;;;;;;5.65;5.35;;;;;;;;;;5026034;28;20329;-74
2023/05/09 12:58:02;;;;;;;6.55;6.15;;;;;;;;;;5029033;28;20030;-75
2023/05/09 13:00:28;;;;;;;6.35;5.85;;;;;;;;;;5006865;28;20037;-78
2023/05/09 13:02:54;;;;;;;6.22;5.82;;;;;;;;;;5027710;28;20049;-77
2023/05/09 13:05:21;;;;;;;6.47;6.07;;;;;;;;;;5025824;28;20155;-76
2023/05/09 13:07:55;;;;;;;5.95;5.55;;;;;;;;;;5028873;28;20037;-75
2023/05/09 13:10:26;;;;;;;6.65;6.15;;;;;;;;;;5009475;28;20103;-75
2023/05/09 13:12:52;;;;;;;6.00;5.60;;;;;;;;;;5024880;28;20095;-77
2023/05/09 13:15:19;;;;;;;6.10;5.70;;;;;;;;;;5027746;28;20045;-74
2023/05/09 13:17:49;;;;;;;5.93;5.53;;;;;;;;;;5005042;28;20029;-75
2023/05/09 13:20:15;;;;;;;5.50;5.20;;;;;;;;;;5022864;28;20039;-75
2023/05/09 13:22:43;;;;;;;6.55;6.07;;;;;;;;;;5024526;28;20041;-75
2023/05/09 13:25:10;;;;;;;6.10;5.70;;;;;;;;;;5029927;28;20049;-76
2023/05/09 13:27:36;;;;;;;6.45;5.95;;;;;;;;;;5035213;28;20030;-78
2023/05/09 13:30:02;;;;;;;6.53;5.88;;;;;;;;;;5008158;28;20099;-78
2023/05/09 13:32:28;;;;;;;5.93;5.55;;;;;;;;;;5029112;28;20059;-74
2023/05/09 13:34:54;;;;;;;6.15;5.75;;;;;;;;;;5009520;28;20025;-76
2023/05/09 13:37:20;;;;;;;6.05;5.65;;;;;;;;;;5008247;28;20051;-74
2023/05/09 13:39:47;;;;;;;6.13;5.72;;;;;;;;;;5006992;28;20061;-76
2023/05/09 13:42:12;;;;;;;6.40;5.82;;;;;;;;;;5029046;28;20037;-77
2023/05/09 13:44:38;;;;;;;5.97;5.57;;;;;;;;;;5026218;28;20472;-77
2023/05/09 13:47:06;;;;;;;6.00;5.60;;;;;;;;;;5025243;28;20111;-77
2023/05/09 13:49:33;;;;;;;6.20;5.80;;;;;;;;;;5024803;28;20068;-77
2023/05/09 13:51:59;;;;;;;5.60;5.30;;;;;;;;;;5008572;28;20284;-74
2023/05/09 13:54:25;;;;;;;6.60;5.45;;;;;;;;;;5025067;28;20049;-74
2023/05/09 13:56:51;;;;;;;5.75;5.38;;;;;;;;;;5025910;28;20049;-76
2023/05/09 13:59:17;;;;;;;6.65;6.15;;;;;;;;;;5023363;28;20383;-76
2023/05/09 14:01:43;;;;;;;5.85;5.40;;;;;;;;;;5009586;28;20041;-77
2023/05/09 14:04:08;;;;;;;5.80;5.40;;;;;;;;;;5025803;28;20041;-77
2023/05/09 14:06:34;;;;;;;6.40;6.00;;;;;;;;;;5025338;28;20134;-77
2023/05/09 14:08:59;;;;;;;6.47;5.88;;;;;;;;;;5029050;28;20044;-77
2023/05/09 14:11:25;;;;;;;6.25;5.80;;;;;;;;;;5009183;28;20049;-76
2023/05/09 14:13:51;;;;;;;6.35;5.75;;;;;;;;;;5020366;28;20033;-76
2023/05/09 14:16:18;;;;;;;6.57;5.65;;;;;;;;;;5025748;28;20060;-76
2023/05/09 14:18:44;;;;;;;6.00;5.60;;;;;;;;;;5025881;28;20072;-76
2023/05/09 14:21:09;;;;;;;6.70;6.20;;;;;;;;;;5009879;28;20465;-75
2023/05/09 14:23:35;;;;;;;6.35;5.95;;;;;;;;;;5009737;28;20044;-78
2023/05/09 14:26:01;;;;;;;6.22;5.72;;;;;;;;;;5024015;28;20554;-78
2023/05/09 14:28:26;;;;;;;5.80;5.40;;;;;;;;;;5029206;28;20043;-79